Time;durP1;ratioP1;P1;durP2;ratioP2;P2;SDS_P1;SDS_P2;PMS_P1;PMS_P2;Temp;Humidity;BMP_temperature;BMP_pressure;BME280_temperature;BME280_humidity;BME280_pressure;Samples;Min_cycle;Max_cycle;Signal;HPM_P1;HPM_P2
2023/06/21 00:00:42;;;;;;;;;;;26.50;45.50;;;;;;1638025;71;705;-81
2023/06/21 00:02:43;;;;;;;;;;;26.50;45.70;;;;;;1634667;71;716;-81
2023/06/21 00:04:45;;;;;;;;;;;26.50;45.60;;;;;;1634174;71;673;-81
2023/06/21 00:06:53;;;;;;;;;;;26.50;45.30;;;;;;1635342;71;1933;-81
2023/06/21 00:08:51;;;;;;;;;;;26.50;45.50;;;;;;1634508;71;1192;-81
2023/06/21 00:10:53;;;;;;;;;;;26.50;45.50;;;;;;1631254;71;714;-81
2023/06/21 00:12:55;;;;;;;;;;;26.50;45.70;;;;;;1633144;71;1521;-82
2023/06/21 00:14:56;;;;;;;;;;;26.50;45.70;;;;;;1633853;71;728;-80
2023/06/21 00:16:58;;;;;;;;;;;26.50;45.40;;;;;;1635264;71;713;-84
2023/06/21 00:19:00;;;;;;;;;;;26.50;45.70;;;;;;1634972;72;1149;-81
2023/06/21 00:21:02;;;;;;;;;;;26.50;45.80;;;;;;1643311;71;677;-82
2023/06/21 00:23:06;;;;;;;;;;;26.50;45.70;;;;;;1635978;71;695;-84
2023/06/21 00:25:08;;;;;;;;;;;26.50;45.60;;;;;;1636925;71;706;-85
2023/06/21 00:27:10;;;;;;;;;;;26.50;45.50;;;;;;1636370;71;1928;-81
2023/06/21 00:29:11;;;;;;;;;;;26.40;45.40;;;;;;1642478;71;1147;-83
2023/06/21 00:31:13;;;;;;;;;;;26.40;45.20;;;;;;1633356;71;772;-82
2023/06/21 00:33:16;;;;;;;;;;;26.50;45.60;;;;;;1633079;71;793;-80
2023/06/21 00:35:18;;;;;;;;;;;26.50;45.70;;;;;;1633385;72;757;-81
2023/06/21 00:37:20;;;;;;;;;;;26.50;45.50;;;;;;1633707;71;679;-79
2023/06/21 00:39:22;;;;;;;;;;;26.50;45.50;;;;;;1636825;71;1128;-79
2023/06/21 00:41:24;;;;;;;;;;;26.50;45.50;;;;;;1645366;71;1451;-79
2023/06/21 00:43:25;;;;;;;;;;;26.50;45.30;;;;;;1634963;71;737;-79
2023/06/21 00:45:27;;;;;;;;;;;26.50;45.30;;;;;;1637857;71;768;-79
2023/06/21 00:47:30;;;;;;;;;;;26.50;45.30;;;;;;1633328;72;1931;-80
2023/06/21 00:49:31;;;;;;;;;;;26.50;45.60;;;;;;1633078;71;1189;-81
2023/06/21 00:51:33;;;;;;;;;;;26.50;45.50;;;;;;1634027;71;868;-81
2023/06/21 00:53:35;;;;;;;;;;;26.50;45.30;;;;;;1634233;72;1400;-80
2023/06/21 00:55:40;;;;;;;;;;;26.50;45.40;;;;;;1634061;71;737;-79
2023/06/21 00:57:43;;;;;;;;;;;26.50;45.40;;;;;;1633634;71;1138;-79
2023/06/21 00:59:44;;;;;;;;;;;26.50;45.30;;;;;;1642142;71;1512;-80
2023/06/21 01:01:46;;;;;;;;;;;26.50;45.00;;;;;;1634164;71;674;-80
2023/06/21 01:03:48;;;;;;;;;;;26.50;45.30;;;;;;1633848;71;631;-80
2023/06/21 01:06:00;;;;;;;;;;;26.50;45.20;;;;;;1635435;71;702;-81
2023/06/21 01:08:03;;;;;;;;;;;26.50;45.30;;;;;;1635796;71;1942;-81
2023/06/21 01:10:08;;;;;;;;;;;26.50;45.10;;;;;;1646095;71;750;-81
2023/06/21 01:12:11;;;;;;;;;;;26.50;45.20;;;;;;1651933;71;745;-83
2023/06/21 01:14:18;;;;;;;;;;;26.50;45.30;;;;;;1634573;71;1126;-83
2023/06/21 01:16:19;;;;;;;;;;;26.40;45.40;;;;;;1571970;72;1029;-81
2023/06/21 01:18:21;;;;;;;;;;;26.50;45.30;;;;;;1636203;71;1131;-82
2023/06/21 01:20:25;;;;;;;;;;;26.40;45.30;;;;;;1635246;72;690;-81
2023/06/21 01:22:34;;;;;;;;;;;26.40;45.30;;;;;;1635307;71;1716;-80
2023/06/21 01:24:41;;;;;;;;;;;26.40;45.20;;;;;;1632393;71;1623;-82
2023/06/21 01:26:44;;;;;;;;;;;26.50;45.20;;;;;;1639893;71;1922;-80
2023/06/21 01:29:06;;;;;;;;;;;26.40;45.20;;;;;;1634534;71;1155;-81
2023/06/21 01:31:09;;;;;;;;;;;26.40;45.40;;;;;;1632901;71;699;-81
2023/06/21 01:33:10;;;;;;;;;;;26.50;45.20;;;;;;1636426;71;689;-82
2023/06/21 01:35:12;;;;;;;;;;;26.40;45.30;;;;;;1636269;71;687;-82
2023/06/21 01:37:14;;;;;;;;;;;26.40;45.30;;;;;;1629052;71;1399;-82
2023/06/21 01:39:16;;;;;;;;;;;26.40;45.30;;;;;;1636741;71;1162;-82
2023/06/21 01:41:19;;;;;;;;;;;26.40;45.30;;;;;;1638774;71;689;-83
2023/06/21 01:43:20;;;;;;;;;;;26.40;45.10;;;;;;1637578;71;686;-82
2023/06/21 01:45:23;;;;;;;;;;;26.40;45.40;;;;;;1635106;71;772;-81
2023/06/21 01:47:25;;;;;;;;;;;26.40;45.50;;;;;;1634340;71;1931;-82
2023/06/21 01:49:27;;;;;;;;;;;26.50;45.40;;;;;;1636937;71;1205;-79
2023/06/21 01:51:28;;;;;;;;;;;26.50;45.60;;;;;;1635261;71;1424;-80
2023/06/21 01:53:31;;;;;;;;;;;26.40;45.60;;;;;;1634302;71;706;-81
2023/06/21 01:55:33;;;;;;;;;;;26.50;45.70;;;;;;1634887;71;669;-82
2023/06/21 01:57:35;;;;;;;;;;;26.30;45.70;;;;;;1638132;71;687;-82
2023/06/21 01:59:37;;;;;;;;;;;26.40;45.50;;;;;;1637605;71;1148;-84
2023/06/21 02:01:40;;;;;;;;;;;26.30;45.60;;;;;;1636019;71;707;-82
2023/06/21 02:03:43;;;;;;;;;;;26.40;45.70;;;;;;1631943;71;698;-82
2023/06/21 02:05:46;;;;;;;;;;;26.30;45.40;;;;;;1637166;71;1478;-81
2023/06/21 02:07:48;;;;;;;;;;;26.30;45.80;;;;;;1635689;71;1926;-82
2023/06/21 02:09:50;;;;;;;;;;;26.30;45.80;;;;;;1641830;71;629;-84
2023/06/21 02:11:52;;;;;;;;;;;26.30;45.70;;;;;;1634534;71;607;-83
2023/06/21 02:13:53;;;;;;;;;;;26.30;45.60;;;;;;1633968;71;719;-83
2023/06/21 02:15:55;;;;;;;;;;;26.30;45.70;;;;;;1634128;71;736;-83
2023/06/21 02:17:57;;;;;;;;;;;26.30;45.40;;;;;;1633469;71;1448;-80
2023/06/21 02:19:59;;;;;;;;;;;26.30;45.40;;;;;;1635159;71;805;-82
2023/06/21 02:22:02;;;;;;;;;;;26.40;45.50;;;;;;1635565;71;693;-83
2023/06/21 02:24:04;;;;;;;;;;;26.30;45.50;;;;;;1635130;71;728;-84
2023/06/21 02:26:06;;;;;;;;;;;26.50;45.50;;;;;;1634536;71;733;-82
2023/06/21 02:28:07;;;;;;;;;;;26.40;45.40;;;;;;1633658;71;1939;-83
2023/06/21 02:30:09;;;;;;;;;;;26.40;45.40;;;;;;1637546;71;736;-81
2023/06/21 02:32:11;;;;;;;;;;;26.40;45.40;;;;;;1633689;71;1468;-83
2023/06/21 02:34:13;;;;;;;;;;;26.40;45.20;;;;;;1634626;71;751;-82
2023/06/21 02:36:15;;;;;;;;;;;26.40;45.30;;;;;;1633311;71;692;-83
2023/06/21 02:38:19;;;;;;;;;;;26.40;45.00;;;;;;1635154;70;1133;-82
2023/06/21 02:40:21;;;;;;;;;;;26.40;45.00;;;;;;1637440;71;739;-82
2023/06/21 02:42:23;;;;;;;;;;;26.50;45.20;;;;;;1635706;71;695;-83
2023/06/21 02:44:25;;;;;;;;;;;26.40;45.10;;;;;;1633959;71;682;-83
2023/06/21 02:46:26;;;;;;;;;;;26.50;45.20;;;;;;1634942;71;1428;-85
2023/06/21 02:48:28;;;;;;;;;;;26.40;45.20;;;;;;1634649;71;1914;-74
2023/06/21 02:50:30;;;;;;;;;;;26.40;45.30;;;;;;1634945;71;661;-77
2023/06/21 02:52:32;;;;;;;;;;;26.30;45.60;;;;;;1633114;72;714;-78
2023/06/21 02:54:34;;;;;;;;;;;26.40;45.40;;;;;;1635628;71;679;-78
2023/06/21 02:56:36;;;;;;;;;;;26.40;45.50;;;;;;1636109;71;748;-78
2023/06/21 02:58:38;;;;;;;;;;;26.40;45.30;;;;;;1638914;71;1164;-79
2023/06/21 03:00:41;;;;;;;;;;;26.40;45.30;;;;;;1634649;71;1420;-80
2023/06/21 03:02:44;;;;;;;;;;;26.40;45.30;;;;;;1632737;71;739;-75
2023/06/21 03:04:46;;;;;;;;;;;26.50;45.10;;;;;;1634247;71;697;-80
2023/06/21 03:06:47;;;;;;;;;;;26.40;45.30;;;;;;1639787;71;726;-78
2023/06/21 03:08:51;;;;;;;;;;;26.40;45.00;;;;;;1634943;71;1937;-81
2023/06/21 03:10:53;;;;;;;;;;;26.40;45.10;;;;;;1633947;71;570;-78
2023/06/21 03:12:55;;;;;;;;;;;26.40;45.10;;;;;;1635921;71;628;-82
2023/06/21 03:14:56;;;;;;;;;;;26.40;45.00;;;;;;1640367;71;1477;-81
2023/06/21 03:16:58;;;;;;;;;;;26.50;45.30;;;;;;1635405;71;768;-82
2023/06/21 03:19:00;;;;;;;;;;;26.40;45.20;;;;;;1634794;71;1177;-77
2023/06/21 03:21:02;;;;;;;;;;;26.40;45.00;;;;;;1638378;71;867;-81
2023/06/21 03:23:04;;;;;;;;;;;26.40;45.50;;;;;;1635496;71;705;-78
2023/06/21 03:25:06;;;;;;;;;;;26.40;45.50;;;;;;1630442;71;632;-78
2023/06/21 03:27:08;;;;;;;;;;;26.40;45.50;;;;;;1635046;71;1919;-80
2023/06/21 03:29:10;;;;;;;;;;;26.40;45.60;;;;;;1634893;71;1466;-80
2023/06/21 03:31:11;;;;;;;;;;;26.40;45.60;;;;;;1634201;71;903;-79
2023/06/21 03:33:13;;;;;;;;;;;26.30;45.60;;;;;;1634110;71;710;-78
2023/06/21 03:35:17;;;;;;;;;;;26.40;45.60;;;;;;1634105;71;716;-77
2023/06/21 03:37:19;;;;;;;;;;;26.40;45.70;;;;;;1633414;71;1552;-73
2023/06/21 03:39:21;;;;;;;;;;;26.40;45.70;;;;;;1630566;71;1162;-77
2023/06/21 03:41:23;;;;;;;;;;;26.40;45.70;;;;;;1634042;71;652;-76
2023/06/21 03:43:25;;;;;;;;;;;26.40;45.90;;;;;;1633861;71;1484;-77
2023/06/21 03:45:27;;;;;;;;;;;26.30;45.70;;;;;;1633498;71;709;-78
2023/06/21 03:47:29;;;;;;;;;;;26.30;45.50;;;;;;1634632;71;1936;-78
2023/06/21 03:49:32;;;;;;;;;;;26.40;45.50;;;;;;1644162;71;1223;-76
2023/06/21 03:51:34;;;;;;;;;;;26.40;45.60;;;;;;1637066;71;661;-77
2023/06/21 03:53:36;;;;;;;;;;;26.30;45.50;;;;;;1635501;71;696;-78
2023/06/21 03:55:37;;;;;;;;;;;26.40;45.20;;;;;;1634799;71;749;-76
2023/06/21 03:57:39;;;;;;;;;;;26.30;45.70;;;;;;1635325;71;1460;-77
2023/06/21 03:59:41;;;;;;;;;;;26.30;45.20;;;;;;1586110;70;2118;-78
2023/06/21 04:01:43;;;;;;;;;;;26.30;45.30;;;;;;1574566;74;714;-78
2023/06/21 04:03:45;;;;;;;;;;;26.40;45.40;;;;;;1573950;74;726;-78
2023/06/21 04:05:47;;;;;;;;;;;26.40;45.20;;;;;;1573533;74;638;-78
2023/06/21 04:07:49;;;;;;;;;;;26.30;45.40;;;;;;1573290;74;1946;-78
2023/06/21 04:09:51;;;;;;;;;;;26.40;45.50;;;;;;1566766;75;1272;-78
2023/06/21 04:11:53;;;;;;;;;;;26.30;45.30;;;;;;1569715;75;1455;-79
2023/06/21 04:13:55;;;;;;;;;;;26.40;45.30;;;;;;1569674;74;731;-79
2023/06/21 04:15:57;;;;;;;;;;;26.30;45.30;;;;;;1572501;74;694;-78
2023/06/21 04:17:59;;;;;;;;;;;26.30;45.30;;;;;;1567120;74;766;-79
2023/06/21 04:20:01;;;;;;;;;;;26.30;45.10;;;;;;1577698;74;1090;-79
2023/06/21 04:22:02;;;;;;;;;;;26.30;45.30;;;;;;1559118;75;710;-79
2023/06/21 04:24:04;;;;;;;;;;;26.30;45.30;;;;;;1566368;74;654;-78
2023/06/21 04:26:06;;;;;;;;;;;26.30;45.50;;;;;;1562242;74;1426;-78
2023/06/21 04:28:10;;;;;;;;;;;26.40;45.40;;;;;;1565484;74;1923;-84
2023/06/21 04:30:12;;;;;;;;;;;26.30;45.10;;;;;;1571155;75;764;-81
2023/06/21 04:32:13;;;;;;;;;;;26.30;45.20;;;;;;1580520;74;695;-81
2023/06/21 04:34:17;;;;;;;;;;;26.40;45.20;;;;;;1563550;74;682;-80
2023/06/21 04:36:19;;;;;;;;;;;26.40;45.20;;;;;;1568413;74;696;-81
2023/06/21 04:38:21;;;;;;;;;;;26.30;45.40;;;;;;1569282;74;1158;-83
2023/06/21 04:40:23;;;;;;;;;;;26.30;45.40;;;;;;1570200;74;1483;-80
2023/06/21 04:42:25;;;;;;;;;;;26.30;45.30;;;;;;1569813;74;717;-82
2023/06/21 04:44:27;;;;;;;;;;;26.40;45.50;;;;;;1573856;74;719;-79
2023/06/21 04:46:29;;;;;;;;;;;26.30;45.70;;;;;;1575143;74;742;-79
2023/06/21 04:48:31;;;;;;;;;;;26.30;45.70;;;;;;1571460;74;1930;-79
2023/06/21 04:50:33;;;;;;;;;;;26.30;45.90;;;;;;1569539;74;714;-81
2023/06/21 04:52:37;;;;;;;;;;;26.30;46.00;;;;;;1563395;74;708;-79
2023/06/21 04:54:38;;;;;;;;;;;26.30;46.20;;;;;;1566436;74;1161;-79
2023/06/21 04:56:40;;;;;;;;;;;26.30;46.20;;;;;;1567742;74;782;-80
2023/06/21 04:58:42;;;;;;;;;;;26.30;46.20;;;;;;1567806;74;1232;-79
2023/06/21 05:00:44;;;;;;;;;;;26.30;46.30;;;;;;1570393;74;779;-78
2023/06/21 05:02:47;;;;;;;;;;;26.30;46.30;;;;;;1567840;74;643;-79
2023/06/21 05:04:49;;;;;;;;;;;26.20;46.20;;;;;;1565396;74;735;-78
2023/06/21 05:06:50;;;;;;;;;;;26.20;46.30;;;;;;1563812;74;1580;-78
2023/06/21 05:08:53;;;;;;;;;;;26.30;46.30;;;;;;1572038;74;1942;-77
2023/06/21 05:10:55;;;;;;;;;;;26.30;46.90;;;;;;1569906;75;642;-80
2023/06/21 05:12:57;;;;;;;;;;;26.20;47.10;;;;;;1561787;74;747;-79
2023/06/21 05:14:59;;;;;;;;;;;26.20;47.30;;;;;;1569088;74;758;-78
2023/06/21 05:17:00;;;;;;;;;;;26.30;47.10;;;;;;1558063;74;797;-81
2023/06/21 05:19:02;;;;;;;;;;;26.20;47.10;;;;;;1567904;74;1177;-79
2023/06/21 05:21:04;;;;;;;;;;;26.20;47.30;;;;;;1567271;74;1499;-79
2023/06/21 05:23:06;;;;;;;;;;;26.20;47.30;;;;;;1556195;74;699;-79
2023/06/21 05:25:08;;;;;;;;;;;26.30;47.30;;;;;;1555337;74;680;-79
2023/06/21 05:27:10;;;;;;;;;;;26.20;47.20;;;;;;1550629;75;778;-80
2023/06/21 05:29:12;;;;;;;;;;;26.20;47.20;;;;;;1568063;74;1940;-79
2023/06/21 05:31:14;;;;;;;;;;;26.20;47.10;;;;;;1568612;76;694;-79
2023/06/21 05:33:16;;;;;;;;;;;26.20;47.10;;;;;;1565466;75;705;-79
2023/06/21 05:35:18;;;;;;;;;;;26.20;46.90;;;;;;1569850;74;1474;-79
2023/06/21 05:37:20;;;;;;;;;;;26.30;47.00;;;;;;1562417;76;780;-80
2023/06/21 05:39:21;;;;;;;;;;;26.30;46.80;;;;;;1569334;74;1167;-79
2023/06/21 05:41:23;;;;;;;;;;;26.30;46.70;;;;;;1570775;74;685;-80
2023/06/21 05:43:25;;;;;;;;;;;26.30;46.80;;;;;;1564044;74;693;-80
2023/06/21 05:45:28;;;;;;;;;;;26.30;46.80;;;;;;1564531;74;734;-78
2023/06/21 05:47:30;;;;;;;;;;;26.30;46.80;;;;;;1561602;74;744;-77
2023/06/21 05:49:32;;;;;;;;;;;26.30;46.70;;;;;;1569774;75;1923;-76
2023/06/21 05:51:34;;;;;;;;;;;26.30;46.60;;;;;;1570398;74;684;-77
2023/06/21 05:53:36;;;;;;;;;;;26.20;46.70;;;;;;1574429;74;719;-76
2023/06/21 05:55:38;;;;;;;;;;;26.30;46.50;;;;;;1563678;74;700;-76
2023/06/21 05:57:40;;;;;;;;;;;26.30;46.60;;;;;;1569133;75;777;-76
2023/06/21 05:59:43;;;;;;;;;;;26.30;46.50;;;;;;1569766;74;1231;-76
2023/06/21 06:01:44;;;;;;;;;;;26.30;46.50;;;;;;1570295;74;526;-75
2023/06/21 06:03:46;;;;;;;;;;;26.30;46.40;;;;;;1572325;74;1445;-76
2023/06/21 06:05:49;;;;;;;;;;;26.20;46.40;;;;;;1567438;74;700;-76
2023/06/21 06:07:51;;;;;;;;;;;26.30;46.50;;;;;;1565735;74;750;-76
2023/06/21 06:09:53;;;;;;;;;;;26.20;46.20;;;;;;1561482;74;1941;-76
2023/06/21 06:11:56;;;;;;;;;;;26.20;46.20;;;;;;1565995;74;709;-75
2023/06/21 06:13:58;;;;;;;;;;;26.20;46.20;;;;;;1567501;74;695;-76
2023/06/21 06:16:00;;;;;;;;;;;26.20;46.20;;;;;;1568232;76;732;-76
2023/06/21 06:18:04;;;;;;;;;;;26.30;46.30;;;;;;1566459;74;1299;-76
2023/06/21 06:20:06;;;;;;;;;;;26.20;46.20;;;;;;1565385;76;667;-76
2023/06/21 06:22:08;;;;;;;;;;;26.30;46.30;;;;;;1559515;74;706;-77
2023/06/21 06:24:10;;;;;;;;;;;26.30;46.20;;;;;;1561804;74;621;-76
2023/06/21 06:26:12;;;;;;;;;;;26.30;46.30;;;;;;1555203;74;644;-76
2023/06/21 06:28:19;;;;;;;;;;;26.20;46.20;;;;;;1557557;75;1932;-75
2023/06/21 06:30:21;;;;;;;;;;;26.20;46.10;;;;;;1562537;74;1877;-75
2023/06/21 06:32:23;;;;;;;;;;;26.20;46.20;;;;;;1568181;74;1481;-76
2023/06/21 06:34:25;;;;;;;;;;;26.30;46.20;;;;;;1569485;74;723;-76
2023/06/21 06:36:26;;;;;;;;;;;26.40;45.90;;;;;;1567987;74;708;-76
2023/06/21 06:38:28;;;;;;;;;;;26.50;45.60;;;;;;1564951;75;1171;-76
2023/06/21 06:40:30;;;;;;;;;;;26.70;45.30;;;;;;1569115;74;818;-77
2023/06/21 06:42:32;;;;;;;;;;;26.80;45.10;;;;;;1566755;76;803;-76
2023/06/21 06:44:34;;;;;;;;;;;26.80;44.90;;;;;;1566511;74;684;-76
2023/06/21 06:46:36;;;;;;;;;;;26.90;44.80;;;;;;1565483;74;1418;-76
2023/06/21 06:48:38;;;;;;;;;;;26.90;44.70;;;;;;1565915;74;1930;-75
2023/06/21 06:50:41;;;;;;;;;;;27.00;45.20;;;;;;1568213;74;745;-76
2023/06/21 06:52:44;;;;;;;;;;;26.90;44.60;;;;;;1562725;74;1256;-73
2023/06/21 06:54:45;;;;;;;;;;;26.90;44.90;;;;;;1570204;74;679;-77
2023/06/21 06:56:47;;;;;;;;;;;26.90;44.90;;;;;;1571988;75;706;-74
2023/06/21 06:58:49;;;;;;;;;;;27.00;45.30;;;;;;1568128;74;1236;-75
2023/06/21 07:00:51;;;;;;;;;;;27.00;45.10;;;;;;1559344;74;1457;-75
2023/06/21 07:02:57;;;;;;;;;;;27.10;44.80;;;;;;1569815;74;768;-75
2023/06/21 07:04:59;;;;;;;;;;;27.10;44.70;;;;;;1564347;74;695;-76
2023/06/21 07:07:01;;;;;;;;;;;27.10;44.80;;;;;;1569904;74;775;-76
2023/06/21 07:09:04;;;;;;;;;;;27.20;44.70;;;;;;1564239;74;1950;-76
2023/06/21 07:11:05;;;;;;;;;;;27.20;44.50;;;;;;1557114;74;692;-76
2023/06/21 07:13:07;;;;;;;;;;;27.30;44.50;;;;;;1566633;76;700;-73
2023/06/21 07:15:09;;;;;;;;;;;27.30;44.40;;;;;;1567501;74;2143;-76
2023/06/21 07:17:11;;;;;;;;;;;27.30;44.30;;;;;;1556486;74;759;-79
2023/06/21 07:19:13;;;;;;;;;;;27.40;44.20;;;;;;1567349;74;1167;-76
2023/06/21 07:21:17;;;;;;;;;;;27.40;44.10;;;;;;1572911;74;713;-76
2023/06/21 07:23:19;;;;;;;;;;;27.40;44.20;;;;;;1574534;74;1532;-76
2023/06/21 07:25:20;;;;;;;;;;;27.40;44.30;;;;;;1564479;75;697;-75
2023/06/21 07:27:22;;;;;;;;;;;27.40;44.30;;;;;;1564171;74;1399;-72
2023/06/21 07:29:24;;;;;;;;;;;27.40;44.30;;;;;;1564420;74;1940;-76
2023/06/21 07:31:26;;;;;;;;;;;27.40;44.40;;;;;;1566711;74;706;-75
2023/06/21 07:33:28;;;;;;;;;;;27.40;44.40;;;;;;1568595;74;694;-76
2023/06/21 07:35:30;;;;;;;;;;;27.40;44.40;;;;;;1562944;74;683;-76
2023/06/21 07:37:33;;;;;;;;;;;27.40;44.30;;;;;;1561970;74;704;-73
2023/06/21 07:39:35;;;;;;;;;;;27.40;44.10;;;;;;1565800;74;1161;-75
2023/06/21 07:41:36;;;;;;;;;;;27.40;44.20;;;;;;1565868;75;1501;-77
2023/06/21 07:43:38;;;;;;;;;;;27.40;43.90;;;;;;1570113;74;697;-75
2023/06/21 07:45:41;;;;;;;;;;;27.40;44.10;;;;;;1567513;74;732;-75
2023/06/21 07:47:43;;;;;;;;;;;27.40;44.20;;;;;;1569887;74;736;-75
2023/06/21 07:49:44;;;;;;;;;;;27.50;44.30;;;;;;1566375;74;1932;-76
2023/06/21 07:51:46;;;;;;;;;;;27.40;44.30;;;;;;1565342;74;715;-76
2023/06/21 07:53:48;;;;;;;;;;;27.40;44.10;;;;;;1570658;74;716;-76
2023/06/21 07:55:50;;;;;;;;;;;27.50;44.00;;;;;;1572824;74;1481;-75
2023/06/21 07:57:52;;;;;;;;;;;27.50;44.10;;;;;;1570522;74;756;-75
2023/06/21 07:59:55;;;;;;;;;;;27.50;44.10;;;;;;1566416;74;1141;-74
2023/06/21 08:01:57;;;;;;;;;;;27.50;44.00;;;;;;1565678;75;737;-74
2023/06/21 08:04:03;;;;;;;;;;;27.60;43.80;;;;;;1566277;74;576;-75
2023/06/21 08:06:05;;;;;;;;;;;27.60;43.90;;;;;;1569284;75;488;-77
2023/06/21 08:08:07;;;;;;;;;;;27.60;43.90;;;;;;1562186;74;1260;-72
2023/06/21 08:10:09;;;;;;;;;;;27.60;44.00;;;;;;1566532;74;1946;-75
2023/06/21 08:12:12;;;;;;;;;;;27.60;43.90;;;;;;1565548;74;712;-75
2023/06/21 08:14:14;;;;;;;;;;;27.60;44.10;;;;;;1569028;74;772;-75
2023/06/21 08:16:16;;;;;;;;;;;27.50;44.20;;;;;;1569335;74;698;-75
2023/06/21 08:18:18;;;;;;;;;;;27.50;44.10;;;;;;1568618;74;1176;-75
2023/06/21 08:20:20;;;;;;;;;;;27.50;44.00;;;;;;1567447;75;678;-75
2023/06/21 08:22:22;;;;;;;;;;;27.50;44.10;;;;;;1568307;74;738;-75
2023/06/21 08:24:26;;;;;;;;;;;27.60;44.10;;;;;;1567871;75;1478;-75
2023/06/21 08:26:28;;;;;;;;;;;27.60;43.90;;;;;;1562431;74;743;-75
2023/06/21 08:28:31;;;;;;;;;;;27.60;43.90;;;;;;1568045;74;1183;-76
2023/06/21 08:30:32;;;;;;;;;;;27.60;44.00;;;;;;1566720;74;1935;-72
2023/06/21 08:32:34;;;;;;;;;;;27.60;43.90;;;;;;1570528;76;775;-75
2023/06/21 08:34:36;;;;;;;;;;;27.70;43.80;;;;;;1566861;74;711;-75
2023/06/21 08:36:38;;;;;;;;;;;27.70;43.80;;;;;;1571763;74;711;-75
2023/06/21 08:38:40;;;;;;;;;;;27.60;43.80;;;;;;1575008;74;1433;-76
2023/06/21 08:40:42;;;;;;;;;;;27.70;43.60;;;;;;1567564;74;760;-75
2023/06/21 08:42:44;;;;;;;;;;;27.70;43.60;;;;;;1565276;74;837;-74
2023/06/21 08:44:46;;;;;;;;;;;27.70;43.60;;;;;;1570498;74;627;-75
2023/06/21 08:46:49;;;;;;;;;;;27.70;43.70;;;;;;1567487;74;682;-75
2023/06/21 08:48:51;;;;;;;;;;;27.70;44.10;;;;;;1570415;74;1186;-74
2023/06/21 08:50:53;;;;;;;;;;;27.70;43.90;;;;;;1570949;74;1929;-75
2023/06/21 08:52:55;;;;;;;;;;;27.70;43.60;;;;;;1572045;74;1365;-75
2023/06/21 08:54:58;;;;;;;;;;;27.70;43.90;;;;;;1563030;74;691;-74
2023/06/21 08:57:13;;;;;;;;;;;27.70;43.60;;;;;;1566669;75;690;-75
2023/06/21 08:59:20;;;;;;;;;;;27.70;43.60;;;;;;1569582;74;1167;-75
2023/06/21 09:01:22;;;;;;;;;;;27.70;43.60;;;;;;1569665;75;1037;-75
2023/06/21 09:03:26;;;;;;;;;;;27.70;43.90;;;;;;1562787;76;545;-74
2023/06/21 09:05:36;;;;;;;;;;;27.70;43.90;;;;;;1567556;74;717;-74
2023/06/21 09:07:38;;;;;;;;;;;27.60;44.30;;;;;;1554744;74;1585;-76
2023/06/21 09:09:40;;;;;;;;;;;27.70;44.50;;;;;;1562770;74;1934;-75
2023/06/21 09:11:42;;;;;;;;;;;27.60;44.30;;;;;;1565895;74;710;-75
2023/06/21 09:13:44;;;;;;;;;;;27.60;44.20;;;;;;1574529;74;749;-75
2023/06/21 09:15:48;;;;;;;;;;;27.70;44.50;;;;;;1558194;76;766;-76
2023/06/21 09:17:50;;;;;;;;;;;27.60;44.10;;;;;;1565125;74;1070;-74
2023/06/21 09:19:52;;;;;;;;;;;27.60;44.10;;;;;;1570962;74;1466;-75
2023/06/21 09:21:55;;;;;;;;;;;27.70;44.30;;;;;;1572886;74;759;-75
2023/06/21 09:23:57;;;;;;;;;;;27.70;44.30;;;;;;1565111;74;774;-74
2023/06/21 09:25:59;;;;;;;;;;;27.60;44.30;;;;;;1562819;74;706;-74
2023/06/21 09:28:01;;;;;;;;;;;27.60;44.20;;;;;;1564490;75;714;-75
2023/06/21 09:30:04;;;;;;;;;;;27.60;44.20;;;;;;1569175;74;1946;-74
2023/06/21 09:32:06;;;;;;;;;;;27.70;44.00;;;;;;1559163;74;779;-74
2023/06/21 09:34:08;;;;;;;;;;;27.70;43.90;;;;;;1567387;74;1439;-74
2023/06/21 09:36:10;;;;;;;;;;;27.60;43.90;;;;;;1570394;74;709;-75
2023/06/21 09:38:22;;;;;;;;;;;27.60;44.10;;;;;;1570300;74;1177;-75
2023/06/21 09:40:24;;;;;;;;;;;27.40;44.20;;;;;;1568513;74;729;-74
2023/06/21 09:42:26;;;;;;;;;;;27.40;44.40;;;;;;1567063;74;774;-74
2023/06/21 09:44:28;;;;;;;;;;;27.40;44.50;;;;;;1570290;74;670;-75
2023/06/21 09:46:30;;;;;;;;;;;27.30;44.60;;;;;;1562235;74;855;-75
2023/06/21 09:48:36;;;;;;;;;;;27.40;44.70;;;;;;1559636;74;1433;-75
2023/06/21 09:50:40;;;;;;;;;;;27.40;44.70;;;;;;1569671;74;1944;-74
2023/06/21 09:52:45;;;;;;;;;;;27.40;44.80;;;;;;1566870;74;940;-74
2023/06/21 09:54:47;;;;;;;;;;;27.30;44.90;;;;;;1566191;74;731;-75
2023/06/21 09:56:49;;;;;;;;;;;27.30;45.00;;;;;;1568106;74;714;-75
2023/06/21 09:58:52;;;;;;;;;;;27.20;45.10;;;;;;1577193;71;2217;-73
2023/06/21 10:00:56;;;;;;;;;;;27.10;45.20;;;;;;1577751;74;527;-72
2023/06/21 10:02:58;;;;;;;;;;;27.10;45.30;;;;;;1585873;74;1376;-73
2023/06/21 10:05:00;;;;;;;;;;;27.10;46.00;;;;;;1557452;75;713;-74
2023/06/21 10:07:02;;;;;;;;;;;27.10;46.30;;;;;;1579447;74;732;-72
2023/06/21 10:09:10;;;;;;;;;;;27.00;46.50;;;;;;1580128;74;1252;-72
2023/06/21 10:11:14;;;;;;;;;;;27.00;46.70;;;;;;1569581;74;1945;-73
2023/06/21 10:13:16;;;;;;;;;;;26.90;46.60;;;;;;1576238;74;2014;-74
2023/06/21 10:15:21;;;;;;;;;;;26.90;45.90;;;;;;1575168;74;708;-74
2023/06/21 10:17:22;;;;;;;;;;;26.90;45.10;;;;;;1577877;74;1400;-75
2023/06/21 10:19:25;;;;;;;;;;;26.90;44.40;;;;;;1580583;74;1248;-73
2023/06/21 10:21:28;;;;;;;;;;;26.90;44.00;;;;;;1582261;74;701;-74
2023/06/21 10:23:31;;;;;;;;;;;26.90;44.00;;;;;;1583373;74;709;-76
2023/06/21 10:25:33;;;;;;;;;;;26.90;43.60;;;;;;1581031;74;670;-71
2023/06/21 10:27:35;;;;;;;;;;;26.90;43.40;;;;;;1576966;74;729;-74
2023/06/21 10:29:38;;;;;;;;;;;26.90;43.20;;;;;;1578200;74;1942;-74
2023/06/21 10:31:40;;;;;;;;;;;26.90;43.10;;;;;;1576188;74;1479;-74
2023/06/21 10:33:42;;;;;;;;;;;26.80;42.90;;;;;;1574646;74;725;-74
2023/06/21 10:35:45;;;;;;;;;;;26.90;42.70;;;;;;1569890;74;743;-73
2023/06/21 10:37:58;;;;;;;;;;;26.80;42.70;;;;;;1577547;74;776;-74
2023/06/21 10:40:01;;;;;;;;;;;26.90;42.60;;;;;;1579116;74;1167;-75
2023/06/21 10:42:03;;;;;;;;;;;26.80;42.50;;;;;;1573030;74;691;-74
2023/06/21 10:44:05;;;;;;;;;;;26.80;42.40;;;;;;1579365;74;749;-76
2023/06/21 10:46:08;;;;;;;;;;;26.80;42.30;;;;;;1581853;74;1646;-75
2023/06/21 10:48:10;;;;;;;;;;;26.80;42.30;;;;;;1584907;74;661;-73
2023/06/21 10:50:12;;;;;;;;;;;26.80;42.50;;;;;;1581428;74;1921;-74
2023/06/21 10:52:14;;;;;;;;;;;26.80;42.50;;;;;;1575859;74;866;-72
2023/06/21 10:54:16;;;;;;;;;;;26.80;42.50;;;;;;1577063;74;824;-75
2023/06/21 10:56:18;;;;;;;;;;;26.80;42.50;;;;;;1574970;75;746;-75
2023/06/21 10:58:20;;;;;;;;;;;26.90;42.50;;;;;;1573350;74;1370;-73
2023/06/21 11:00:22;;;;;;;;;;;26.80;42.60;;;;;;1577702;74;1161;-75
2023/06/21 11:02:24;;;;;;;;;;;26.80;42.50;;;;;;1579401;74;717;-73
2023/06/21 11:04:26;;;;;;;;;;;26.90;42.50;;;;;;1582834;74;777;-75
2023/06/21 11:06:34;;;;;;;;;;;26.80;42.50;;;;;;1583678;74;751;-74
2023/06/21 11:08:32;;;;;;;;;;;26.80;42.50;;;;;;1583543;74;1526;-75
2023/06/21 11:10:49;;;;;;;;;;;26.90;42.50;;;;;;1541941;75;1929;-75
2023/06/21 11:12:53;;;;;;;;;;;26.80;42.40;;;;;;1575692;74;1472;-75
2023/06/21 11:14:55;;;;;;;;;;;26.90;42.50;;;;;;1578239;74;1185;-75
2023/06/21 11:17:04;;;;;;;;;;;26.80;42.40;;;;;;1580587;74;765;-74
2023/06/21 11:19:06;;;;;;;;;;;26.80;42.60;;;;;;1575152;74;1861;-73
2023/06/21 11:21:08;;;;;;;;;;;26.80;42.60;;;;;;1576944;74;721;-75
2023/06/21 11:23:10;;;;;;;;;;;26.80;42.70;;;;;;1573075;74;718;-75
2023/06/21 11:25:15;;;;;;;;;;;26.80;42.60;;;;;;1579231;74;717;-73
2023/06/21 11:27:17;;;;;;;;;;;26.80;42.60;;;;;;1568701;74;1431;-73
2023/06/21 11:29:19;;;;;;;;;;;26.80;42.60;;;;;;1574355;74;1233;-75
2023/06/21 11:31:24;;;;;;;;;;;26.80;42.70;;;;;;1576644;74;1939;-74
2023/06/21 11:33:33;;;;;;;;;;;26.80;42.70;;;;;;1578770;74;769;-74
2023/06/21 11:35:39;;;;;;;;;;;26.90;42.70;;;;;;1578414;74;661;-73
2023/06/21 11:37:47;;;;;;;;;;;26.80;42.70;;;;;;1573647;74;1975;-72
2023/06/21 11:39:48;;;;;;;;;;;26.80;42.60;;;;;;1581957;74;1468;-75
2023/06/21 11:41:53;;;;;;;;;;;26.80;42.50;;;;;;1539279;75;1511;-74
2023/06/21 11:43:57;;;;;;;;;;;26.80;42.50;;;;;;1582288;74;694;-74
2023/06/21 11:46:00;;;;;;;;;;;26.80;42.50;;;;;;1578122;74;705;-74
2023/06/21 11:48:08;;;;;;;;;;;26.70;42.40;;;;;;1575245;74;710;-75
2023/06/21 11:50:10;;;;;;;;;;;26.80;42.30;;;;;;1560836;74;1946;-74
2023/06/21 11:52:13;;;;;;;;;;;26.80;42.30;;;;;;1577218;74;1793;-74
2023/06/21 11:54:16;;;;;;;;;;;26.70;42.30;;;;;;1578562;74;692;-74
2023/06/21 11:56:19;;;;;;;;;;;26.80;42.30;;;;;;1573673;74;1720;-74
2023/06/21 11:58:21;;;;;;;;;;;26.80;42.30;;;;;;1577070;74;683;-75
2023/06/21 12:00:23;;;;;;;;;;;26.80;42.30;;;;;;1574490;74;1122;-73
2023/06/21 12:02:25;;;;;;;;;;;26.80;42.30;;;;;;1575995;74;789;-74
2023/06/21 12:04:27;;;;;;;;;;;26.80;42.30;;;;;;1572187;74;776;-74
2023/06/21 12:06:28;;;;;;;;;;;26.80;42.30;;;;;;1580471;74;777;-73
2023/06/21 12:08:34;;;;;;;;;;;26.80;42.30;;;;;;1582185;74;1188;-73
2023/06/21 12:10:36;;;;;;;;;;;26.80;42.40;;;;;;1573758;74;1931;-74